Time;durP1;ratioP1;P1;durP2;ratioP2;P2;SDS_P1;SDS_P2;PMS_P1;PMS_P2;Temp;Humidity;BMP_temperature;BMP_pressure;BME280_temperature;BME280_humidity;BME280_pressure;Samples;Min_cycle;Max_cycle;Signal;HPM_P1;HPM_P2
2021/06/28 00:01:19;;;;;;;1.63;1.27;;;;;;;;;;5054280;28;20060;-44
2021/06/28 00:03:47;;;;;;;2.63;1.73;;;;;;;;;;5053680;28;20048;-44
2021/06/28 00:06:13;;;;;;;1.58;1.48;;;;;;;;;;5053496;28;20538;-43
2021/06/28 00:08:38;;;;;;;6.13;2.20;;;;;;;;;;5055224;28;20103;-46
2021/06/28 00:11:07;;;;;;;3.05;1.50;;;;;;;;;;5051924;28;20508;-41
2021/06/28 00:13:34;;;;;;;3.03;1.63;;;;;;;;;;5053483;28;20492;-41
2021/06/28 00:15:59;;;;;;;2.92;1.88;;;;;;;;;;5054913;28;20349;-45
2021/06/28 00:18:24;;;;;;;2.28;1.58;;;;;;;;;;5056435;28;20082;-45
2021/06/28 00:20:50;;;;;;;2.13;1.52;;;;;;;;;;5057251;28;20070;-41
2021/06/28 00:23:15;;;;;;;3.00;1.20;;;;;;;;;;5055350;28;20076;-44
2021/06/28 00:25:40;;;;;;;3.75;2.15;;;;;;;;;;5053924;28;20475;-44
2021/06/28 00:28:06;;;;;;;4.43;2.40;;;;;;;;;;5056782;28;20079;-42
2021/06/28 00:30:36;;;;;;;2.72;1.60;;;;;;;;;;5057040;28;20052;-41
2021/06/28 00:33:02;;;;;;;5.07;1.95;;;;;;;;;;5058026;28;20078;-41
2021/06/28 00:35:27;;;;;;;12.55;1.75;;;;;;;;;;5058445;28;20025;-43
2021/06/28 00:37:52;;;;;;;7.75;2.30;;;;;;;;;;5057481;28;20039;-41
2021/06/28 00:40:18;;;;;;;7.78;1.75;;;;;;;;;;5056476;28;20478;-43
2021/06/28 00:42:44;;;;;;;10.05;2.08;;;;;;;;;;5055842;28;20024;-42
2021/06/28 00:45:19;;;;;;;2.50;1.58;;;;;;;;;;5056044;28;20387;-43
2021/06/28 00:47:45;;;;;;;4.63;1.77;;;;;;;;;;5056310;28;20032;-41
2021/06/28 00:50:11;;;;;;;1.65;1.55;;;;;;;;;;5058676;28;20357;-40
2021/06/28 00:52:37;;;;;;;4.30;2.45;;;;;;;;;;5054277;28;20021;-40
2021/06/28 00:55:03;;;;;;;3.67;2.17;;;;;;;;;;5056300;28;20086;-41
2021/06/28 00:57:29;;;;;;;9.60;2.47;;;;;;;;;;5057033;28;20438;-44
2021/06/28 00:59:55;;;;;;;9.63;1.83;;;;;;;;;;5062499;28;20020;-42
2021/06/28 01:02:20;;;;;;;1.52;1.35;;;;;;;;;;5059263;28;20103;-41
2021/06/28 01:04:45;;;;;;;3.65;1.48;;;;;;;;;;5056984;28;20191;-42
2021/06/28 01:07:11;;;;;;;6.55;1.75;;;;;;;;;;5056722;28;20684;-41
2021/06/28 01:09:36;;;;;;;3.78;2.15;;;;;;;;;;5057004;28;20467;-41
2021/06/28 01:12:02;;;;;;;20.83;4.43;;;;;;;;;;5058917;28;20041;-40
2021/06/28 01:14:28;;;;;;;5.10;2.22;;;;;;;;;;5055214;28;20028;-41
2021/06/28 01:16:53;;;;;;;10.75;2.28;;;;;;;;;;5054379;28;20055;-42
2021/06/28 01:19:21;;;;;;;1.30;1.17;;;;;;;;;;5057425;28;20020;-44
2021/06/28 01:21:47;;;;;;;4.47;1.88;;;;;;;;;;5055517;28;20114;-41
2021/06/28 01:24:13;;;;;;;4.18;2.15;;;;;;;;;;5058943;28;20130;-45
2021/06/28 01:26:39;;;;;;;4.15;1.25;;;;;;;;;;5054411;28;20479;-45
2021/06/28 01:29:04;;;;;;;5.13;2.53;;;;;;;;;;5056315;28;20118;-43
2021/06/28 01:31:30;;;;;;;29.70;5.45;;;;;;;;;;5063290;28;20483;-41
2021/06/28 01:33:55;;;;;;;6.35;2.55;;;;;;;;;;5055988;28;20028;-44
2021/06/28 01:36:20;;;;;;;2.53;1.90;;;;;;;;;;5059118;28;20542;-41
2021/06/28 01:38:48;;;;;;;6.20;1.92;;;;;;;;;;5056678;28;20473;-42
2021/06/28 01:41:13;;;;;;;7.75;1.90;;;;;;;;;;5055086;28;20028;-44
2021/06/28 01:43:40;;;;;;;2.30;1.73;;;;;;;;;;5056028;28;20055;-43
2021/06/28 01:46:06;;;;;;;3.60;1.73;;;;;;;;;;5058395;28;20033;-42
2021/06/28 01:48:31;;;;;;;2.88;1.40;;;;;;;;;;5055028;28;20513;-41
2021/06/28 01:50:56;;;;;;;2.95;1.33;;;;;;;;;;5059925;28;20104;-41
2021/06/28 01:53:22;;;;;;;3.35;2.05;;;;;;;;;;5055546;28;20041;-41
2021/06/28 01:55:47;;;;;;;3.38;1.15;;;;;;;;;;5055955;28;20047;-41
2021/06/28 01:58:13;;;;;;;4.43;1.92;;;;;;;;;;5056385;28;20108;-40
2021/06/28 02:00:45;;;;;;;1.75;1.27;;;;;;;;;;5057660;28;20028;-41
2021/06/28 02:03:18;;;;;;;3.58;1.10;;;;;;;;;;5057259;28;20021;-40
2021/06/28 02:05:57;;;;;;;5.60;1.15;;;;;;;;;;5058252;28;20032;-44
2021/06/28 02:08:25;;;;;;;10.05;1.73;;;;;;;;;;5057754;28;20089;-42
2021/06/28 02:10:51;;;;;;;2.28;1.42;;;;;;;;;;5058296;28;20119;-43
2021/06/28 02:13:21;;;;;;;7.45;2.38;;;;;;;;;;5059430;28;20047;-44
2021/06/28 02:15:46;;;;;;;6.15;2.35;;;;;;;;;;5059697;28;20036;-40
2021/06/28 02:18:11;;;;;;;6.97;2.10;;;;;;;;;;5055199;28;20025;-41
2021/06/28 02:20:37;;;;;;;9.15;1.80;;;;;;;;;;5057990;28;20021;-41
2021/06/28 02:23:21;;;;;;;4.03;1.83;;;;;;;;;;5058297;28;20021;-41
2021/06/28 02:25:51;;;;;;;6.20;2.20;;;;;;;;;;5056433;28;20032;-41
2021/06/28 02:28:17;;;;;;;4.40;1.88;;;;;;;;;;5056398;28;20569;-41
2021/06/28 02:30:42;;;;;;;2.65;1.23;;;;;;;;;;5057467;28;20056;-41
2021/06/28 02:33:07;;;;;;;3.22;1.60;;;;;;;;;;5055492;28;20028;-41
2021/06/28 02:35:33;;;;;;;4.05;2.38;;;;;;;;;;5055624;28;20025;-41
2021/06/28 02:37:58;;;;;;;4.65;2.35;;;;;;;;;;5056295;28;20049;-45
2021/06/28 02:40:23;;;;;;;3.22;1.70;;;;;;;;;;5059844;28;20505;-44
2021/06/28 02:42:49;;;;;;;1.92;1.42;;;;;;;;;;5056572;28;20082;-45
2021/06/28 02:45:14;;;;;;;2.45;1.15;;;;;;;;;;5053667;28;20071;-41
2021/06/28 02:47:39;;;;;;;3.92;1.98;;;;;;;;;;5055480;28;20032;-41
2021/06/28 02:50:09;;;;;;;3.03;1.65;;;;;;;;;;5056314;28;20017;-41
2021/06/28 02:52:35;;;;;;;25.27;2.40;;;;;;;;;;5054580;28;20025;-42
2021/06/28 02:55:01;;;;;;;4.72;1.55;;;;;;;;;;5061384;28;20074;-41
2021/06/28 02:57:26;;;;;;;7.18;1.17;;;;;;;;;;5057211;28;20021;-42
2021/06/28 02:59:51;;;;;;;3.88;0.82;;;;;;;;;;5055790;28;20111;-41
2021/06/28 03:02:17;;;;;;;2.92;1.20;;;;;;;;;;5052957;28;20082;-36
2021/06/28 03:04:42;;;;;;;2.70;1.92;;;;;;;;;;5055953;28;20063;-35
2021/06/28 03:07:07;;;;;;;1.52;1.00;;;;;;;;;;5056891;28;20066;-35
2021/06/28 03:09:33;;;;;;;1.60;1.00;;;;;;;;;;5056716;28;20016;-35
2021/06/28 03:11:59;;;;;;;2.88;1.60;;;;;;;;;;5039405;28;20774;-36
2021/06/28 03:14:24;;;;;;;3.95;1.38;;;;;;;;;;5054480;28;20033;-36
2021/06/28 03:16:50;;;;;;;1.73;0.60;;;;;;;;;;5053990;28;20034;-36
2021/06/28 03:19:15;;;;;;;0.80;0.60;;;;;;;;;;5052783;28;20021;-36
2021/06/28 03:21:40;;;;;;;1.75;0.70;;;;;;;;;;5036575;28;20389;-36
2021/06/28 03:24:06;;;;;;;1.55;1.13;;;;;;;;;;5057039;28;20123;-35
2021/06/28 03:26:31;;;;;;;1.38;0.98;;;;;;;;;;5061373;28;20028;-36
2021/06/28 03:28:56;;;;;;;0.98;0.75;;;;;;;;;;5058206;28;20055;-36
2021/06/28 03:31:22;;;;;;;1.52;0.70;;;;;;;;;;5055578;28;20476;-36
2021/06/28 03:33:47;;;;;;;1.42;1.00;;;;;;;;;;5055593;28;20550;-35
2021/06/28 03:36:12;;;;;;;3.33;1.58;;;;;;;;;;5051761;28;20379;-35
2021/06/28 03:38:38;;;;;;;2.05;0.82;;;;;;;;;;5055865;28;20414;-35
2021/06/28 03:41:03;;;;;;;2.83;1.20;;;;;;;;;;5057058;28;20078;-35
2021/06/28 03:43:28;;;;;;;3.35;1.08;;;;;;;;;;5055065;28;20036;-35
2021/06/28 03:45:54;;;;;;;4.32;2.08;;;;;;;;;;5059415;28;20077;-36
2021/06/28 03:48:19;;;;;;;5.97;0.85;;;;;;;;;;5055490;28;20032;-35
2021/06/28 03:50:44;;;;;;;3.22;1.42;;;;;;;;;;5058220;28;20066;-36
2021/06/28 03:53:10;;;;;;;1.33;0.90;;;;;;;;;;5059411;28;20033;-35
2021/06/28 03:55:36;;;;;;;2.33;0.85;;;;;;;;;;5060892;28;20024;-36
2021/06/28 03:58:01;;;;;;;1.73;0.95;;;;;;;;;;5059621;28;20424;-35
2021/06/28 04:00:27;;;;;;;2.40;1.13;;;;;;;;;;5062352;28;20099;-35
2021/06/28 04:02:54;;;;;;;2.58;1.23;;;;;;;;;;5058826;28;20024;-35
2021/06/28 04:05:22;;;;;;;1.35;1.13;;;;;;;;;;5058970;28;20280;-35
2021/06/28 04:07:48;;;;;;;6.85;1.38;;;;;;;;;;5060740;28;20548;-36
2021/06/28 04:10:14;;;;;;;1.98;1.17;;;;;;;;;;5059916;28;20100;-35
2021/06/28 04:12:40;;;;;;;2.33;0.57;;;;;;;;;;5057254;28;20032;-35
2021/06/28 04:15:09;;;;;;;2.33;1.52;;;;;;;;;;5058363;28;20435;-35
2021/06/28 04:17:34;;;;;;;5.05;0.88;;;;;;;;;;5057259;28;20056;-35
2021/06/28 04:19:59;;;;;;;5.93;0.85;;;;;;;;;;5061575;28;20499;-35
2021/06/28 04:22:25;;;;;;;1.88;1.23;;;;;;;;;;5059349;28;20442;-35
2021/06/28 04:24:50;;;;;;;1.95;0.50;;;;;;;;;;5060591;28;20427;-35
2021/06/28 04:27:15;;;;;;;1.85;0.85;;;;;;;;;;5058602;28;20020;-35
2021/06/28 04:29:41;;;;;;;1.30;0.98;;;;;;;;;;5058444;28;20013;-36
2021/06/28 04:32:06;;;;;;;4.53;1.30;;;;;;;;;;5059216;28;20032;-35
2021/06/28 04:34:32;;;;;;;1.73;1.02;;;;;;;;;;5061357;28;20024;-35
2021/06/28 04:36:57;;;;;;;10.18;1.23;;;;;;;;;;5055534;28;20132;-35
2021/06/28 04:39:22;;;;;;;5.57;1.55;;;;;;;;;;5059231;28;20487;-35
2021/06/28 04:41:48;;;;;;;5.43;2.13;;;;;;;;;;5056602;28;20100;-35
2021/06/28 04:44:13;;;;;;;1.48;0.85;;;;;;;;;;5061172;28;20095;-35
2021/06/28 04:46:38;;;;;;;3.42;1.58;;;;;;;;;;5058069;28;20025;-35
2021/06/28 04:49:04;;;;;;;3.53;2.45;;;;;;;;;;5060764;28;20140;-35
2021/06/28 04:51:29;;;;;;;2.45;1.02;;;;;;;;;;5056752;28;20074;-35
2021/06/28 04:53:54;;;;;;;2.55;1.80;;;;;;;;;;5062389;28;20047;-36
2021/06/28 04:56:19;;;;;;;2.22;1.40;;;;;;;;;;5057868;28;20731;-35
2021/06/28 04:58:45;;;;;;;1.88;1.38;;;;;;;;;;5055943;28;20025;-35
2021/06/28 05:01:10;;;;;;;5.50;3.08;;;;;;;;;;5056005;28;20016;-36
2021/06/28 05:03:35;;;;;;;2.22;1.10;;;;;;;;;;5057936;28;20024;-44
2021/06/28 05:06:01;;;;;;;2.42;1.27;;;;;;;;;;5058303;28;20021;-41
2021/06/28 05:08:26;;;;;;;2.67;1.63;;;;;;;;;;5060072;28;20502;-41
2021/06/28 05:10:51;;;;;;;6.75;1.50;;;;;;;;;;5059117;28;20123;-43
2021/06/28 05:13:16;;;;;;;3.25;1.65;;;;;;;;;;5059371;28;20089;-40
2021/06/28 05:15:42;;;;;;;4.20;1.42;;;;;;;;;;5056933;28;20052;-41
2021/06/28 05:18:07;;;;;;;5.40;1.58;;;;;;;;;;5057185;28;20048;-42
2021/06/28 05:20:32;;;;;;;8.05;3.65;;;;;;;;;;5057560;28;20020;-42
2021/06/28 05:22:58;;;;;;;17.15;15.30;;;;;;;;;;5059783;28;20032;-41
2021/06/28 05:25:23;;;;;;;24.85;18.08;;;;;;;;;;5059667;28;20063;-42
2021/06/28 05:27:49;;;;;;;15.55;10.85;;;;;;;;;;5059132;28;20395;-40
2021/06/28 05:30:15;;;;;;;16.20;8.25;;;;;;;;;;5057025;28;20712;-42
2021/06/28 05:32:41;;;;;;;15.35;9.32;;;;;;;;;;5057438;28;20108;-41
2021/06/28 05:35:07;;;;;;;21.83;9.80;;;;;;;;;;5055050;28;20100;-41
2021/06/28 05:37:33;;;;;;;18.02;11.07;;;;;;;;;;5058991;28;20035;-41
2021/06/28 05:39:58;;;;;;;11.02;8.38;;;;;;;;;;5058446;28;20020;-42
2021/06/28 05:42:23;;;;;;;12.75;8.93;;;;;;;;;;5060958;28;20032;-42
2021/06/28 05:44:49;;;;;;;24.52;7.22;;;;;;;;;;5058933;28;20420;-42
2021/06/28 05:47:16;;;;;;;13.98;6.40;;;;;;;;;;5058333;28;20460;-43
2021/06/28 05:49:43;;;;;;;15.25;5.50;;;;;;;;;;5057507;28;20024;-43
2021/06/28 05:52:09;;;;;;;5.45;3.58;;;;;;;;;;5056189;28;20021;-43
2021/06/28 05:54:35;;;;;;;13.07;5.63;;;;;;;;;;5055947;28;20128;-45
2021/06/28 05:57:00;;;;;;;9.43;4.18;;;;;;;;;;5055587;28;20119;-40
2021/06/28 05:59:26;;;;;;;10.55;6.63;;;;;;;;;;5055927;28;20082;-42
2021/06/28 06:01:51;;;;;;;4.32;3.35;;;;;;;;;;5055345;28;20372;-41
2021/06/28 06:04:16;;;;;;;5.72;3.50;;;;;;;;;;5059144;28;20043;-41
2021/06/28 06:06:42;;;;;;;7.07;4.72;;;;;;;;;;5057013;28;20017;-40
2021/06/28 06:09:08;;;;;;;4.05;2.72;;;;;;;;;;5060431;28;20035;-43
2021/06/28 06:11:33;;;;;;;3.63;2.25;;;;;;;;;;5055855;28;20076;-44
2021/06/28 06:13:59;;;;;;;11.50;1.65;;;;;;;;;;5055570;28;20514;-42
2021/06/28 06:16:25;;;;;;;5.30;2.53;;;;;;;;;;5055126;28;20056;-43
2021/06/28 06:18:50;;;;;;;15.55;7.82;;;;;;;;;;5059060;28;20063;-42
2021/06/28 06:21:16;;;;;;;16.60;15.05;;;;;;;;;;5057976;28;20024;-42
2021/06/28 06:23:41;;;;;;;17.67;16.17;;;;;;;;;;5055723;28;20476;-41
2021/06/28 06:26:07;;;;;;;14.25;12.93;;;;;;;;;;5058486;28;20064;-42
2021/06/28 06:28:32;;;;;;;8.93;4.57;;;;;;;;;;5054567;28;20515;-43
2021/06/28 06:30:57;;;;;;;2.20;1.17;;;;;;;;;;5053627;28;20028;-45
2021/06/28 06:33:22;;;;;;;2.08;1.08;;;;;;;;;;5053575;28;20035;-43
2021/06/28 06:35:48;;;;;;;2.85;1.92;;;;;;;;;;5056152;28;20040;-41
2021/06/28 06:38:14;;;;;;;2.75;1.35;;;;;;;;;;5056740;28;20066;-43
2021/06/28 06:40:39;;;;;;;6.18;2.33;;;;;;;;;;5055034;28;20069;-45
2021/06/28 06:43:04;;;;;;;3.53;1.60;;;;;;;;;;5054965;28;20166;-45
2021/06/28 06:45:30;;;;;;;5.97;5.38;;;;;;;;;;5054458;28;20120;-46
2021/06/28 06:47:56;;;;;;;3.60;2.65;;;;;;;;;;5057407;28;20613;-45
2021/06/28 06:50:21;;;;;;;4.55;3.20;;;;;;;;;;5056319;28;20629;-44
2021/06/28 06:52:47;;;;;;;4.20;1.80;;;;;;;;;;5054328;28;20100;-45
2021/06/28 06:55:12;;;;;;;3.00;1.85;;;;;;;;;;5053608;28;20029;-47
2021/06/28 06:57:39;;;;;;;3.00;1.88;;;;;;;;;;5054177;28;20095;-44
2021/06/28 07:00:07;;;;;;;4.18;2.58;;;;;;;;;;5058272;28;20027;-45
2021/06/28 07:02:32;;;;;;;11.40;4.35;;;;;;;;;;5053737;28;20464;-44
2021/06/28 07:04:58;;;;;;;8.35;3.83;;;;;;;;;;5056430;28;20032;-46
2021/06/28 07:07:23;;;;;;;4.75;4.20;;;;;;;;;;5052662;28;20505;-46
2021/06/28 07:09:49;;;;;;;1.90;1.65;;;;;;;;;;5054591;28;20017;-44
2021/06/28 07:12:14;;;;;;;4.82;2.40;;;;;;;;;;5057238;28;20044;-44
2021/06/28 07:14:39;;;;;;;12.57;1.63;;;;;;;;;;5056586;28;20029;-45
2021/06/28 07:17:05;;;;;;;3.90;2.78;;;;;;;;;;5058380;28;20024;-46
2021/06/28 07:19:30;;;;;;;4.97;1.63;;;;;;;;;;5055090;28;20154;-43
2021/06/28 07:21:56;;;;;;;5.82;3.22;;;;;;;;;;5053096;28;20032;-44
2021/06/28 07:24:21;;;;;;;7.43;3.65;;;;;;;;;;5056511;28;20090;-47
2021/06/28 07:26:46;;;;;;;46.47;17.05;;;;;;;;;;5056926;28;20036;-44
2021/06/28 07:29:12;;;;;;;6.03;5.43;;;;;;;;;;5060964;28;20127;-43
2021/06/28 07:31:37;;;;;;;8.32;2.67;;;;;;;;;;5060525;28;20013;-44
2021/06/28 07:34:02;;;;;;;2.10;1.52;;;;;;;;;;5058974;28;20021;-42
2021/06/28 07:36:28;;;;;;;2.30;1.30;;;;;;;;;;5058685;28;20028;-43
2021/06/28 07:38:53;;;;;;;2.72;1.40;;;;;;;;;;5062197;28;20021;-44
2021/06/28 07:41:19;;;;;;;6.18;3.20;;;;;;;;;;5057828;28;20495;-44
2021/06/28 07:43:44;;;;;;;6.07;2.53;;;;;;;;;;5058652;28;20019;-45
2021/06/28 07:46:10;;;;;;;5.93;1.90;;;;;;;;;;5056373;28;20033;-45
2021/06/28 07:48:35;;;;;;;9.10;2.20;;;;;;;;;;5058402;28;20103;-43
2021/06/28 07:51:00;;;;;;;4.55;2.75;;;;;;;;;;5060824;28;20078;-42
2021/06/28 07:53:26;;;;;;;8.65;3.08;;;;;;;;;;5058126;28;20524;-45
2021/06/28 07:55:51;;;;;;;2.78;1.15;;;;;;;;;;5057749;28;20090;-43
2021/06/28 07:58:17;;;;;;;1.77;0.68;;;;;;;;;;5059920;28;20029;-44
2021/06/28 08:00:42;;;;;;;6.90;2.33;;;;;;;;;;5059094;28;20020;-41
2021/06/28 08:03:08;;;;;;;5.03;1.90;;;;;;;;;;5063400;28;20031;-44
2021/06/28 08:05:34;;;;;;;3.45;1.80;;;;;;;;;;5060509;28;20027;-43
2021/06/28 08:07:59;;;;;;;7.07;1.80;;;;;;;;;;5060952;28;20154;-44
2021/06/28 08:10:25;;;;;;;2.15;1.30;;;;;;;;;;5058472;28;20499;-43
2021/06/28 08:12:51;;;;;;;4.63;1.80;;;;;;;;;;5061974;28;20075;-45
2021/06/28 08:15:19;;;;;;;1.20;0.80;;;;;;;;;;5062165;28;20542;-42
2021/06/28 08:17:45;;;;;;;1.35;0.90;;;;;;;;;;5058114;28;20526;-42
2021/06/28 08:20:11;;;;;;;1.08;0.77;;;;;;;;;;5060410;28;20078;-43
2021/06/28 08:22:36;;;;;;;2.42;0.63;;;;;;;;;;5060163;28;20525;-45
2021/06/28 08:25:04;;;;;;;2.70;1.20;;;;;;;;;;5055724;28;20036;-46
2021/06/28 08:27:30;;;;;;;6.32;1.48;;;;;;;;;;5062150;28;20025;-38
2021/06/28 08:29:55;;;;;;;2.15;1.67;;;;;;;;;;5059952;28;20399;-36
2021/06/28 08:32:20;;;;;;;5.07;1.70;;;;;;;;;;5059814;28;20020;-36
2021/06/28 08:34:46;;;;;;;1.23;0.57;;;;;;;;;;5060727;28;20024;-36
2021/06/28 08:37:11;;;;;;;0.52;0.30;;;;;;;;;;5055915;28;20016;-36
2021/06/28 08:39:36;;;;;;;3.30;1.50;;;;;;;;;;5061791;28;20048;-37
2021/06/28 08:42:04;;;;;;;3.42;1.40;;;;;;;;;;5055849;28;20025;-36
2021/06/28 08:44:29;;;;;;;3.22;1.35;;;;;;;;;;5057850;28;20025;-36
2021/06/28 08:46:57;;;;;;;1.02;0.40;;;;;;;;;;5059855;28;20025;-36
2021/06/28 08:49:23;;;;;;;2.35;0.70;;;;;;;;;;5056249;28;20024;-36
2021/06/28 08:51:48;;;;;;;1.98;1.30;;;;;;;;;;5057702;28;20032;-37
2021/06/28 08:54:15;;;;;;;0.93;0.52;;;;;;;;;;5055500;28;20021;-36
2021/06/28 08:56:42;;;;;;;2.33;1.35;;;;;;;;;;5058957;28;20028;-43
2021/06/28 08:59:07;;;;;;;5.13;1.60;;;;;;;;;;5060543;28;20480;-43
2021/06/28 09:01:33;;;;;;;6.60;1.30;;;;;;;;;;5058597;28;20031;-44
2021/06/28 09:03:59;;;;;;;7.32;1.77;;;;;;;;;;5058801;28;20027;-44
2021/06/28 09:06:25;;;;;;;4.50;3.65;;;;;;;;;;5058594;28;20119;-46
2021/06/28 09:08:54;;;;;;;2.50;1.40;;;;;;;;;;5058143;28;20112;-44
2021/06/28 09:11:19;;;;;;;0.73;0.60;;;;;;;;;;5057590;28;20176;-44
2021/06/28 09:13:47;;;;;;;0.70;0.38;;;;;;;;;;5057677;28;20104;-45
2021/06/28 09:16:12;;;;;;;1.00;0.70;;;;;;;;;;5059636;28;20032;-45
2021/06/28 09:18:48;;;;;;;2.20;1.35;;;;;;;;;;5055832;28;20021;-43
2021/06/28 09:21:13;;;;;;;1.85;1.02;;;;;;;;;;5058961;28;20024;-43
2021/06/28 09:23:39;;;;;;;1.35;1.02;;;;;;;;;;5053643;28;20086;-47
2021/06/28 09:26:09;;;;;;;1.92;1.00;;;;;;;;;;5059439;28;20016;-44
2021/06/28 09:28:38;;;;;;;3.03;2.03;;;;;;;;;;5056018;28;20135;-43
2021/06/28 09:31:04;;;;;;;1.17;0.60;;;;;;;;;;5055616;28;20098;-43
2021/06/28 09:33:29;;;;;;;2.80;0.80;;;;;;;;;;5056117;28;20020;-43
2021/06/28 09:35:54;;;;;;;3.40;2.15;;;;;;;;;;5056973;28;20048;-45
2021/06/28 09:38:40;;;;;;;7.43;2.33;;;;;;;;;;5059624;28;20533;-48
2021/06/28 09:41:25;;;;;;;6.97;1.50;;;;;;;;;;5059528;28;20033;-47
2021/06/28 09:43:59;;;;;;;3.05;1.60;;;;;;;;;;5057673;28;20083;-46
2021/06/28 09:46:24;;;;;;;2.13;1.25;;;;;;;;;;5058979;28;20028;-44
2021/06/28 09:48:50;;;;;;;8.50;2.38;;;;;;;;;;5060802;28;20024;-43
2021/06/28 09:51:22;;;;;;;2.00;0.93;;;;;;;;;;5056728;28;20048;-45
2021/06/28 09:53:49;;;;;;;3.50;1.92;;;;;;;;;;5058414;28;20020;-43
2021/06/28 09:56:29;;;;;;;3.90;1.60;;;;;;;;;;5057001;28;20107;-44
2021/06/28 09:58:54;;;;;;;1.65;0.98;;;;;;;;;;5061483;28;20029;-43
2021/06/28 10:01:26;;;;;;;5.93;1.80;;;;;;;;;;5061673;28;20540;-44
2021/06/28 10:03:54;;;;;;;4.03;1.10;;;;;;;;;;5059070;28;20016;-46
2021/06/28 10:08:48;;;;;;;0.75;0.50;;;;;;;;;;5057991;28;20288;-48
2021/06/28 10:11:13;;;;;;;1.58;1.00;;;;;;;;;;5062464;28;20050;-44
2021/06/28 10:13:39;;;;;;;6.45;1.95;;;;;;;;;;5056263;28;20470;-46
2021/06/28 10:16:05;;;;;;;1.73;0.70;;;;;;;;;;5059039;28;20070;-46
2021/06/28 10:18:30;;;;;;;4.10;2.58;;;;;;;;;;5058646;28;20471;-44
2021/06/28 10:20:56;;;;;;;9.77;1.70;;;;;;;;;;5058923;28;20020;-44
2021/06/28 10:23:21;;;;;;;3.05;1.48;;;;;;;;;;5054253;28;20017;-47
2021/06/28 10:25:46;;;;;;;1.40;1.10;;;;;;;;;;5052801;28;20373;-45
2021/06/28 10:28:11;;;;;;;7.57;1.75;;;;;;;;;;5056056;28;20029;-44
2021/06/28 10:30:37;;;;;;;4.38;2.60;;;;;;;;;;5057120;28;20020;-45
2021/06/28 10:33:08;;;;;;;1.55;0.70;;;;;;;;;;5055956;28;20023;-47
2021/06/28 10:35:35;;;;;;;1.92;1.30;;;;;;;;;;5057234;28;20066;-46
2021/06/28 10:38:03;;;;;;;5.03;1.95;;;;;;;;;;5056541;28;20021;-45
2021/06/28 10:40:42;;;;;;;9.93;1.90;;;;;;;;;;5056177;28;20032;-45
2021/06/28 10:43:20;;;;;;;3.03;1.45;;;;;;;;;;5056855;28;20659;-45
2021/06/28 10:45:46;;;;;;;1.08;0.60;;;;;;;;;;5056065;28;20029;-44
2021/06/28 10:48:14;;;;;;;1.92;1.13;;;;;;;;;;5060543;28;20028;-46
2021/06/28 10:50:57;;;;;;;3.63;1.23;;;;;;;;;;5054756;28;20044;-44
2021/06/28 10:53:29;;;;;;;3.60;1.38;;;;;;;;;;5056147;28;20589;-47
2021/06/28 10:55:54;;;;;;;9.70;2.10;;;;;;;;;;5055427;28;20636;-45
2021/06/28 10:58:23;;;;;;;2.45;1.55;;;;;;;;;;5055581;28;20032;-45
2021/06/28 11:00:49;;;;;;;4.13;1.60;;;;;;;;;;5053331;28;20024;-45
2021/06/28 11:03:24;;;;;;;1.60;0.50;;;;;;;;;;5057006;28;20032;-46
2021/06/28 11:06:13;;;;;;;3.10;1.20;;;;;;;;;;5056665;28;20017;-46
2021/06/28 11:09:01;;;;;;;1.45;0.73;;;;;;;;;;5057831;28;20396;-43
2021/06/28 11:11:54;;;;;;;5.63;2.63;;;;;;;;;;5027581;28;20076;-43
2021/06/28 11:14:19;;;;;;;3.85;2.15;;;;;;;;;;5052796;28;20036;-54
2021/06/28 11:16:57;;;;;;;6.07;2.08;;;;;;;;;;5055102;28;20091;-54
2021/06/28 11:19:42;;;;;;;3.42;1.17;;;;;;;;;;5051991;28;20108;-53
2021/06/28 11:22:26;;;;;;;8.05;2.35;;;;;;;;;;5058158;28;20407;-55
2021/06/28 11:25:12;;;;;;;11.10;1.60;;;;;;;;;;5054246;28;20048;-55
2021/06/28 11:27:43;;;;;;;11.88;1.73;;;;;;;;;;5055623;28;20173;-54
2021/06/28 11:30:15;;;;;;;1.00;0.70;;;;;;;;;;5056443;28;20480;-58
2021/06/28 11:32:59;;;;;;;4.18;1.83;;;;;;;;;;5055598;28;20487;-54
2021/06/28 11:35:43;;;;;;;2.58;1.25;;;;;;;;;;5055453;28;20028;-53
2021/06/28 11:38:14;;;;;;;4.47;0.95;;;;;;;;;;5053445;28;20037;-54
2021/06/28 11:40:40;;;;;;;0.65;0.50;;;;;;;;;;5054801;28;20025;-54
2021/06/28 11:43:06;;;;;;;4.70;1.83;;;;;;;;;;5053369;28;20028;-54
2021/06/28 11:45:52;;;;;;;2.28;1.05;;;;;;;;;;5056134;28;20016;-51
2021/06/28 11:48:31;;;;;;;1.10;0.60;;;;;;;;;;5055081;28;20171;-54
2021/06/28 11:50:56;;;;;;;5.40;2.08;;;;;;;;;;5054157;28;20016;-54
2021/06/28 11:53:22;;;;;;;2.67;1.08;;;;;;;;;;5054489;28;20021;-55
2021/06/28 11:55:48;;;;;;;5.68;3.47;;;;;;;;;;5046100;28;20988;-52
2021/06/28 11:58:14;;;;;;;2.15;1.75;;;;;;;;;;5056161;28;20126;-52
2021/06/28 12:00:39;;;;;;;1.70;1.15;;;;;;;;;;5052242;28;20085;-52
2021/06/28 12:03:15;;;;;;;1.15;0.60;;;;;;;;;;5056747;28;20033;-51
2021/06/28 12:05:42;;;;;;;1.20;0.45;;;;;;;;;;5056720;28;20198;-54
2021/06/28 12:08:08;;;;;;;4.00;1.77;;;;;;;;;;5053607;28;20526;-53
2021/06/28 12:10:33;;;;;;;6.10;1.98;;;;;;;;;;5057068;28;20570;-54
2021/06/28 12:12:59;;;;;;;2.08;0.80;;;;;;;;;;5057538;28;20009;-52
2021/06/28 12:15:25;;;;;;;2.50;1.38;;;;;;;;;;5056271;28;20020;-52
2021/06/28 12:17:50;;;;;;;2.95;1.35;;;;;;;;;;5061191;28;20490;-53
2021/06/28 12:20:18;;;;;;;4.00;1.10;;;;;;;;;;5061060;28;20021;-44
2021/06/28 12:22:44;;;;;;;1.98;0.68;;;;;;;;;;5061811;28;20035;-43
2021/06/28 12:25:14;;;;;;;4.35;1.65;;;;;;;;;;5055590;28;20028;-45
2021/06/28 12:27:41;;;;;;;1.27;0.70;;;;;;;;;;5057776;28;20020;-48
2021/06/28 12:30:11;;;;;;;5.60;1.77;;;;;;;;;;5060753;28;20032;-45
2021/06/28 12:32:42;;;;;;;2.25;1.17;;;;;;;;;;5061006;28;20056;-46
2021/06/28 12:35:08;;;;;;;3.78;1.35;;;;;;;;;;5057433;28;20076;-45
2021/06/28 12:37:35;;;;;;;2.30;1.15;;;;;;;;;;5059300;28;20024;-44
2021/06/28 12:40:16;;;;;;;5.93;2.53;;;;;;;;;;5057076;28;20035;-38
2021/06/28 12:42:43;;;;;;;2.47;1.45;;;;;;;;;;5058462;28;20017;-38
2021/06/28 12:45:09;;;;;;;4.28;2.05;;;;;;;;;;5056368;28;20032;-38
2021/06/28 12:47:34;;;;;;;2.45;1.20;;;;;;;;;;5062470;28;20025;-38
2021/06/28 12:50:00;;;;;;;2.10;0.98;;;;;;;;;;5056426;28;20107;-40
2021/06/28 12:52:29;;;;;;;4.90;1.60;;;;;;;;;;5056394;28;20047;-38
2021/06/28 12:55:04;;;;;;;7.70;1.52;;;;;;;;;;5057303;28;20024;-38
2021/06/28 12:57:30;;;;;;;2.28;0.63;;;;;;;;;;5058954;28;20490;-39
2021/06/28 12:59:56;;;;;;;4.30;2.47;;;;;;;;;;5057718;28;20036;-47
2021/06/28 13:02:33;;;;;;;3.88;1.83;;;;;;;;;;5059882;28;20051;-44
2021/06/28 13:05:03;;;;;;;5.57;1.13;;;;;;;;;;5059946;28;20025;-44
2021/06/28 13:07:28;;;;;;;3.13;1.33;;;;;;;;;;5061066;28;20445;-46
2021/06/28 13:09:58;;;;;;;5.32;2.03;;;;;;;;;;5057646;28;20119;-42
2021/06/28 13:12:24;;;;;;;3.15;1.60;;;;;;;;;;5018541;28;20045;-42
2021/06/28 13:14:57;;;;;;;2.75;1.48;;;;;;;;;;5017007;28;20018;-43
2021/06/28 13:17:29;;;;;;;6.85;0.82;;;;;;;;;;5015603;28;20105;-43
2021/06/28 13:19:54;;;;;;;2.30;1.00;;;;;;;;;;5017627;28;20037;-43
2021/06/28 13:22:20;;;;;;;2.70;1.80;;;;;;;;;;5020217;28;20026;-47
2021/06/28 13:24:50;;;;;;;5.32;1.67;;;;;;;;;;5019728;28;20524;-44
2021/06/28 13:27:18;;;;;;;3.20;1.33;;;;;;;;;;5020301;28;20029;-43
2021/06/28 13:29:44;;;;;;;2.50;1.35;;;;;;;;;;5017453;28;20053;-46
2021/06/28 13:32:19;;;;;;;6.72;2.13;;;;;;;;;;5021228;28;20049;-43
2021/06/28 13:34:45;;;;;;;2.95;1.25;;;;;;;;;;5018127;28;20022;-44
2021/06/28 13:37:21;;;;;;;1.60;1.08;;;;;;;;;;5017559;28;20025;-43
2021/06/28 13:39:50;;;;;;;6.32;2.47;;;;;;;;;;5020711;28;20033;-45
2021/06/28 13:42:42;;;;;;;1.98;1.35;;;;;;;;;;5016020;28;20072;-44
2021/06/28 13:45:13;;;;;;;5.47;1.55;;;;;;;;;;4999238;28;20080;-45
2021/06/28 13:47:52;;;;;;;4.25;2.30;;;;;;;;;;5018172;28;20104;-44
2021/06/28 13:50:18;;;;;;;2.58;1.55;;;;;;;;;;5014776;28;20021;-43
2021/06/28 13:52:44;;;;;;;3.25;2.13;;;;;;;;;;5017679;28;20053;-46
2021/06/28 13:55:10;;;;;;;3.90;1.85;;;;;;;;;;5015718;28;20444;-44
2021/06/28 13:57:49;;;;;;;4.80;1.98;;;;;;;;;;5018041;28;20112;-46
2021/06/28 14:00:15;;;;;;;2.67;1.38;;;;;;;;;;5019193;28;20018;-45
2021/06/28 14:02:40;;;;;;;3.58;1.45;;;;;;;;;;5019393;28;20049;-46
2021/06/28 14:05:06;;;;;;;3.63;1.73;;;;;;;;;;5017128;28;20421;-45
2021/06/28 14:07:31;;;;;;;6.70;2.63;;;;;;;;;;5015745;28;20022;-43
2021/06/28 14:09:57;;;;;;;4.03;2.00;;;;;;;;;;5017109;28;20500;-43
2021/06/28 14:12:22;;;;;;;4.60;3.42;;;;;;;;;;5056185;28;20028;-46
2021/06/28 14:14:47;;;;;;;8.30;1.98;;;;;;;;;;5057603;28;20028;-43
2021/06/28 14:17:13;;;;;;;3.08;2.22;;;;;;;;;;5056970;28;20552;-46
2021/06/28 14:19:38;;;;;;;3.17;1.80;;;;;;;;;;5055879;28;20435;-43
2021/06/28 14:22:04;;;;;;;3.20;1.17;;;;;;;;;;5054420;28;20056;-46
2021/06/28 14:24:29;;;;;;;4.30;1.75;;;;;;;;;;5058122;28;20025;-44
2021/06/28 14:26:54;;;;;;;2.95;1.20;;;;;;;;;;5058506;28;20387;-46
2021/06/28 14:29:20;;;;;;;5.25;2.10;;;;;;;;;;5055095;28;20090;-45
2021/06/28 14:31:45;;;;;;;9.60;1.85;;;;;;;;;;5056490;28;20578;-44
2021/06/28 14:34:10;;;;;;;1.30;0.60;;;;;;;;;;5054147;28;20024;-42
2021/06/28 14:36:36;;;;;;;3.00;1.42;;;;;;;;;;5056395;28;20021;-43
2021/06/28 14:39:01;;;;;;;4.72;1.63;;;;;;;;;;5055798;28;20025;-43
2021/06/28 14:41:27;;;;;;;2.70;1.58;;;;;;;;;;5057720;28;20427;-44
2021/06/28 14:43:52;;;;;;;4.82;2.20;;;;;;;;;;5058352;28;20637;-43